Wan Hai 501 — S6AS7 — position and weather

sailwx.info

Track history (hours):
 
Tides and Currents Weather Stations Pressure Air Temp Water Temp Dewpoint Dewpoint Depression Visibility Wind Speed Wind Dir Waves Ship Positions

Wan Hai 501

Last reported at 2017-Apr-28 02:13 UTC. Time now 2017-Apr-29 13:37 UTC.
Position N 24°21' E 118°49'.

Length 269 m; draft 12 m.

Type: Cargo ship. MMSI: 563382000.

Date/timePositionNaut miles runAvg speedWind from/ knotsBaromVisibWave heightAir tempDewpointWater temp
2017-Apr-28 02:13N 24°21' E 118°49'3018.1
2017-Apr-28 00:34N 24°00' E 118°25'118.4
2017-Apr-28 00:30N 23°59' E 118°24'256 8.0
2017-Apr-26 16:33N 22°20' E 114°07'  
2017-Apr-21 03:57N 01°14' E 104°06'919.1
2017-Apr-21 03:30N 01°13' E 103°58'5 9.4
2017-Apr-21 03:00N 01°12' E 103°53'4 8.6
2017-Apr-21 02:30N 01°12' E 103°49'510.7
2017-Apr-21 02:00N 01°16' E 103°45'1 2.4
2017-Apr-21 01:30N 01°17' E 103°46'0 0.1
2017-Apr-21 00:54N 01°17' E 103°46'0 0.0
2017-Apr-21 00:30N 01°17' E 103°46'0 0.0
2017-Apr-20 23:57N 01°17' E 103°46'0 0.0
2017-Apr-20 23:30N 01°17' E 103°46'0 0.0
2017-Apr-20 22:57N 01°17' E 103°46'0 0.0
2017-Apr-20 22:30N 01°17' E 103°46'0 0.0
2017-Apr-20 21:57N 01°17' E 103°46'0 0.0
2017-Apr-20 21:30N 01°17' E 103°46'0 0.0
2017-Apr-20 21:00N 01°17' E 103°46'0 0.0
2017-Apr-20 20:30N 01°17' E 103°46'0 0.0
2017-Apr-20 19:57N 01°17' E 103°46'0 0.0
2017-Apr-20 19:30N 01°17' E 103°46'0 0.0
2017-Apr-20 18:57N 01°17' E 103°46'0 0.0
2017-Apr-20 18:30N 01°17' E 103°46'0 0.0
2017-Apr-20 18:00N 01°17' E 103°46'0 0.0
2017-Apr-20 17:27N 01°17' E 103°46'0 0.0
2017-Apr-20 16:57N 01°17' E 103°46'0 0.0
2017-Apr-20 16:30N 01°17' E 103°46'0 0.0
2017-Apr-20 15:57N 01°17' E 103°46'0 0.0
2017-Apr-20 15:30N 01°17' E 103°46'0 0.0
2017-Apr-20 14:57N 01°17' E 103°46'0 0.0
2017-Apr-20 13:57N 01°17' E 103°46'0 0.0
2017-Apr-20 13:30N 01°17' E 103°46'0 0.0
2017-Apr-20 13:00N 01°17' E 103°46'0 0.0
2017-Apr-20 12:30N 01°17' E 103°46'0 0.0
2017-Apr-20 11:57N 01°17' E 103°46'0 0.0
2017-Apr-20 11:30N 01°17' E 103°46'0 0.0
2017-Apr-20 11:00N 01°17' E 103°46'0 0.0
2017-Apr-20 10:30N 01°17' E 103°46'0 0.0
2017-Apr-20 09:57N 01°17' E 103°46'0 0.0
2017-Apr-20 09:30N 01°17' E 103°46'0 0.0
2017-Apr-20 08:57N 01°17' E 103°46'0 0.0
2017-Apr-20 08:30N 01°17' E 103°46'0 0.0
2017-Apr-20 07:57N 01°17' E 103°46'0 0.0
2017-Apr-20 07:30N 01°17' E 103°46'0 0.0
2017-Apr-20 07:00N 01°17' E 103°46'0 0.0
2017-Apr-20 06:30N 01°17' E 103°46'0 0.0
2017-Apr-20 05:57N 01°17' E 103°46'0 0.0
2017-Apr-20 05:27N 01°17' E 103°46'0 0.0
2017-Apr-20 04:57N 01°17' E 103°46'0 0.0
2017-Apr-20 04:30N 01°17' E 103°46'0 0.0
2017-Apr-20 03:57N 01°17' E 103°46'0 0.0
2017-Apr-20 03:30N 01°17' E 103°46'0 0.0
2017-Apr-20 03:00N 01°17' E 103°46'0 0.0
2017-Apr-20 02:30N 01°17' E 103°46'0 0.0
2017-Apr-20 02:00N 01°17' E 103°46'0 0.0
2017-Apr-20 01:30N 01°17' E 103°46'0 0.0
2017-Apr-20 00:57N 01°17' E 103°46'0 0.0
2017-Apr-20 00:27N 01°17' E 103°46'0 0.0
2017-Apr-19 23:57N 01°17' E 103°46'0 0.0
2017-Apr-19 23:27N 01°17' E 103°46'0 0.0
2017-Apr-19 22:54N 01°17' E 103°46'0 0.0
2017-Apr-19 22:30N 01°17' E 103°46'0 0.0
2017-Apr-19 21:57N 01°17' E 103°46'0 0.0
2017-Apr-19 21:30N 01°17' E 103°46'0 0.0
2017-Apr-19 21:00N 01°17' E 103°46'0 0.0
2017-Apr-19 20:30N 01°17' E 103°46'0 0.0
2017-Apr-19 19:57N 01°17' E 103°46'0 0.0
2017-Apr-19 19:30N 01°17' E 103°46'0 0.0
2017-Apr-19 18:57N 01°17' E 103°46'0 0.0
2017-Apr-19 18:30N 01°17' E 103°46'0 0.0
2017-Apr-19 18:00N 01°17' E 103°46'0 0.5
2017-Apr-19 17:30N 01°17' E 103°45'1 2.2
2017-Apr-19 17:00N 01°16' E 103°45'1 1.5
2017-Apr-19 16:30N 01°16' E 103°46'3 6.5
2017-Apr-19 16:00N 01°14' E 103°43'510.1
2017-Apr-19 15:30N 01°12' E 103°38'2 5.1
2017-Apr-19 15:00N 01°13' E 103°36'4 8.5
2017-Apr-19 14:30N 01°12' E 103°32'1 0.8
2017-Apr-19 13:30N 01°11' E 103°31'3 5.2
2017-Apr-19 13:00N 01°10' E 103°29'713.5
2017-Apr-19 12:29N 01°13' E 103°23'3514.6
2017-Apr-19 10:04N 01°34' E 102°54'214.8
2017-Apr-19 09:55N 01°35' E 102°52'2214.9
2017-Apr-19 08:28N 01°45' E 102°32'715.0
2017-Apr-19 08:00N 01°48' E 102°26'715.0
2017-Apr-19 07:30N 01°51' E 102°20'  
Track history (hours):
 
Tides and Currents Weather Stations Pressure Air Temp Water Temp Dewpoint Dewpoint Depression Visibility Wind Speed Wind Dir Waves Ship Positions

Wan Hai 501

Last reported at 2017-Apr-28 02:13 UTC. Time now 2017-Apr-29 13:37 UTC.
Position N 24°21' E 118°49'.

Length 269 m; draft 12 m.

Type: Cargo ship. MMSI: 563382000.

Date/timePositionNaut miles runAvg speedWind from/ knotsBaromVisibWave heightAir tempDewpointWater temp
2017-Apr-28 02:13N 24°21' E 118°49'3018.1
2017-Apr-28 00:34N 24°00' E 118°25'118.4
2017-Apr-28 00:30N 23°59' E 118°24'256 8.0
2017-Apr-26 16:33N 22°20' E 114°07'  
2017-Apr-21 03:57N 01°14' E 104°06'919.1
2017-Apr-21 03:30N 01°13' E 103°58'5 9.4
2017-Apr-21 03:00N 01°12' E 103°53'4 8.6
2017-Apr-21 02:30N 01°12' E 103°49'510.7
2017-Apr-21 02:00N 01°16' E 103°45'1 2.4
2017-Apr-21 01:30N 01°17' E 103°46'0 0.1
2017-Apr-21 00:54N 01°17' E 103°46'0 0.0
2017-Apr-21 00:30N 01°17' E 103°46'0 0.0
2017-Apr-20 23:57N 01°17' E 103°46'0 0.0
2017-Apr-20 23:30N 01°17' E 103°46'0 0.0
2017-Apr-20 22:57N 01°17' E 103°46'0 0.0
2017-Apr-20 22:30N 01°17' E 103°46'0 0.0
2017-Apr-20 21:57N 01°17' E 103°46'0 0.0
2017-Apr-20 21:30N 01°17' E 103°46'0 0.0
2017-Apr-20 21:00N 01°17' E 103°46'0 0.0
2017-Apr-20 20:30N 01°17' E 103°46'0 0.0
2017-Apr-20 19:57N 01°17' E 103°46'0 0.0
2017-Apr-20 19:30N 01°17' E 103°46'0 0.0
2017-Apr-20 18:57N 01°17' E 103°46'0 0.0
2017-Apr-20 18:30N 01°17' E 103°46'0 0.0
2017-Apr-20 18:00N 01°17' E 103°46'0 0.0
2017-Apr-20 17:27N 01°17' E 103°46'0 0.0
2017-Apr-20 16:57N 01°17' E 103°46'0 0.0
2017-Apr-20 16:30N 01°17' E 103°46'0 0.0
2017-Apr-20 15:57N 01°17' E 103°46'0 0.0
2017-Apr-20 15:30N 01°17' E 103°46'0 0.0
2017-Apr-20 14:57N 01°17' E 103°46'0 0.0
2017-Apr-20 13:57N 01°17' E 103°46'0 0.0
2017-Apr-20 13:30N 01°17' E 103°46'0 0.0
2017-Apr-20 13:00N 01°17' E 103°46'0 0.0
2017-Apr-20 12:30N 01°17' E 103°46'0 0.0
2017-Apr-20 11:57N 01°17' E 103°46'0 0.0
2017-Apr-20 11:30N 01°17' E 103°46'0 0.0
2017-Apr-20 11:00N 01°17' E 103°46'0 0.0
2017-Apr-20 10:30N 01°17' E 103°46'0 0.0
2017-Apr-20 09:57N 01°17' E 103°46'0 0.0
2017-Apr-20 09:30N 01°17' E 103°46'0 0.0
2017-Apr-20 08:57N 01°17' E 103°46'0 0.0
2017-Apr-20 08:30N 01°17' E 103°46'0 0.0
2017-Apr-20 07:57N 01°17' E 103°46'0 0.0
2017-Apr-20 07:30N 01°17' E 103°46'0 0.0
2017-Apr-20 07:00N 01°17' E 103°46'0 0.0
2017-Apr-20 06:30N 01°17' E 103°46'0 0.0
2017-Apr-20 05:57N 01°17' E 103°46'0 0.0
2017-Apr-20 05:27N 01°17' E 103°46'0 0.0
2017-Apr-20 04:57N 01°17' E 103°46'0 0.0
2017-Apr-20 04:30N 01°17' E 103°46'0 0.0
2017-Apr-20 03:57N 01°17' E 103°46'0 0.0
2017-Apr-20 03:30N 01°17' E 103°46'0 0.0
2017-Apr-20 03:00N 01°17' E 103°46'0 0.0
2017-Apr-20 02:30N 01°17' E 103°46'0 0.0
2017-Apr-20 02:00N 01°17' E 103°46'0 0.0
2017-Apr-20 01:30N 01°17' E 103°46'0 0.0
2017-Apr-20 00:57N 01°17' E 103°46'0 0.0
2017-Apr-20 00:27N 01°17' E 103°46'0 0.0
2017-Apr-19 23:57N 01°17' E 103°46'0 0.0
2017-Apr-19 23:27N 01°17' E 103°46'0 0.0
2017-Apr-19 22:54N 01°17' E 103°46'0 0.0
2017-Apr-19 22:30N 01°17' E 103°46'0 0.0
2017-Apr-19 21:57N 01°17' E 103°46'0 0.0
2017-Apr-19 21:30N 01°17' E 103°46'0 0.0
2017-Apr-19 21:00N 01°17' E 103°46'0 0.0
2017-Apr-19 20:30N 01°17' E 103°46'0 0.0
2017-Apr-19 19:57N 01°17' E 103°46'0 0.0
2017-Apr-19 19:30N 01°17' E 103°46'0 0.0
2017-Apr-19 18:57N 01°17' E 103°46'0 0.0
2017-Apr-19 18:30N 01°17' E 103°46'0 0.0
2017-Apr-19 18:00N 01°17' E 103°46'0 0.5
2017-Apr-19 17:30N 01°17' E 103°45'1 2.2
2017-Apr-19 17:00N 01°16' E 103°45'1 1.5
2017-Apr-19 16:30N 01°16' E 103°46'3 6.5
2017-Apr-19 16:00N 01°14' E 103°43'510.1
2017-Apr-19 15:30N 01°12' E 103°38'2 5.1
2017-Apr-19 15:00N 01°13' E 103°36'4 8.5
2017-Apr-19 14:30N 01°12' E 103°32'1 0.8
2017-Apr-19 13:30N 01°11' E 103°31'3 5.2
2017-Apr-19 13:00N 01°10' E 103°29'713.5
2017-Apr-19 12:29N 01°13' E 103°23'3514.6
2017-Apr-19 10:04N 01°34' E 102°54'214.8
2017-Apr-19 09:55N 01°35' E 102°52'2214.9
2017-Apr-19 08:28N 01°45' E 102°32'715.0
2017-Apr-19 08:00N 01°48' E 102°26'715.0
2017-Apr-19 07:30N 01°51' E 102°20'  

Dump ship's entire track history